sensor_id;sensor_type;location;lat;lon;timestamp;temperature;humidity
39951;DHT22;25629;51.444;-2.606;2022-07-23T00:00:02;17.30;99.90
39951;DHT22;25629;51.444;-2.606;2022-07-23T00:02:28;17.30;99.90
39951;DHT22;25629;51.444;-2.606;2022-07-23T00:04:53;17.30;99.90
39951;DHT22;25629;51.444;-2.606;2022-07-23T00:07:19;17.20;99.90
39951;DHT22;25629;51.444;-2.606;2022-07-23T00:09:45;17.20;99.90
39951;DHT22;25629;51.444;-2.606;2022-07-23T00:12:10;17.10;99.90
39951;DHT22;25629;51.444;-2.606;2022-07-23T00:14:36;17.10;99.90
39951;DHT22;25629;51.444;-2.606;2022-07-23T00:17:01;17.10;99.90
39951;DHT22;25629;51.444;-2.606;2022-07-23T00:19:27;17.10;99.90
39951;DHT22;25629;51.444;-2.606;2022-07-23T00:21:54;17.00;99.90
39951;DHT22;25629;51.444;-2.606;2022-07-23T00:24:20;17.00;99.90
39951;DHT22;25629;51.444;-2.606;2022-07-23T00:26:45;17.00;99.90
39951;DHT22;25629;51.444;-2.606;2022-07-23T00:29:11;16.90;99.90
39951;DHT22;25629;51.444;-2.606;2022-07-23T00:31:36;16.80;99.90
39951;DHT22;25629;51.444;-2.606;2022-07-23T00:34:02;16.80;99.90
39951;DHT22;25629;51.444;-2.606;2022-07-23T00:36:28;16.80;99.90
39951;DHT22;25629;51.444;-2.606;2022-07-23T00:38:54;16.80;99.90
39951;DHT22;25629;51.444;-2.606;2022-07-23T00:41:19;16.80;99.90
39951;DHT22;25629;51.444;-2.606;2022-07-23T00:43:45;16.70;99.90
39951;DHT22;25629;51.444;-2.606;2022-07-23T00:46:11;16.70;99.90
39951;DHT22;25629;51.444;-2.606;2022-07-23T00:48:36;16.70;99.90
39951;DHT22;25629;51.444;-2.606;2022-07-23T00:51:02;16.60;99.90
39951;DHT22;25629;51.444;-2.606;2022-07-23T00:53:28;16.60;99.90
39951;DHT22;25629;51.444;-2.606;2022-07-23T00:55:53;16.60;99.90
39951;DHT22;25629;51.444;-2.606;2022-07-23T00:58:19;16.60;99.90
39951;DHT22;25629;51.444;-2.606;2022-07-23T01:00:45;16.50;99.90
39951;DHT22;25629;51.444;-2.606;2022-07-23T01:03:10;16.40;99.90
39951;DHT22;25629;51.444;-2.606;2022-07-23T01:05:36;16.40;99.90
39951;DHT22;25629;51.444;-2.606;2022-07-23T01:08:01;16.40;99.90
39951;DHT22;25629;51.444;-2.606;2022-07-23T01:10:27;16.40;99.90
39951;DHT22;25629;51.444;-2.606;2022-07-23T01:13:00;16.40;99.90
39951;DHT22;25629;51.444;-2.606;2022-07-23T01:15:26;16.40;99.90
39951;DHT22;25629;51.444;-2.606;2022-07-23T01:17:51;16.40;99.90
39951;DHT22;25629;51.444;-2.606;2022-07-23T01:20:17;16.40;99.90
39951;DHT22;25629;51.444;-2.606;2022-07-23T01:22:43;16.30;99.90
39951;DHT22;25629;51.444;-2.606;2022-07-23T01:25:08;16.30;99.90
39951;DHT22;25629;51.444;-2.606;2022-07-23T01:27:34;16.30;99.90
39951;DHT22;25629;51.444;-2.606;2022-07-23T01:30:00;16.30;99.90
39951;DHT22;25629;51.444;-2.606;2022-07-23T01:32:26;16.30;99.90
39951;DHT22;25629;51.444;-2.606;2022-07-23T01:34:51;16.20;99.90
39951;DHT22;25629;51.444;-2.606;2022-07-23T01:37:17;16.20;99.90
39951;DHT22;25629;51.444;-2.606;2022-07-23T01:39:43;16.20;99.90
39951;DHT22;25629;51.444;-2.606;2022-07-23T01:42:08;16.20;99.90
39951;DHT22;25629;51.444;-2.606;2022-07-23T01:44:34;16.20;99.90
39951;DHT22;25629;51.444;-2.606;2022-07-23T01:46:59;16.20;99.90
39951;DHT22;25629;51.444;-2.606;2022-07-23T01:49:25;16.10;99.90
39951;DHT22;25629;51.444;-2.606;2022-07-23T01:51:50;16.10;99.90
39951;DHT22;25629;51.444;-2.606;2022-07-23T01:54:28;16.20;99.90
39951;DHT22;25629;51.444;-2.606;2022-07-23T01:56:54;16.20;99.90
39951;DHT22;25629;51.444;-2.606;2022-07-23T01:59:20;16.10;99.90
39951;DHT22;25629;51.444;-2.606;2022-07-23T02:01:46;16.10;99.90
39951;DHT22;25629;51.444;-2.606;2022-07-23T02:04:11;16.10;99.90
39951;DHT22;25629;51.444;-2.606;2022-07-23T02:06:37;16.00;99.90
39951;DHT22;25629;51.444;-2.606;2022-07-23T02:09:02;16.00;99.90
39951;DHT22;25629;51.444;-2.606;2022-07-23T02:11:28;16.00;99.90
39951;DHT22;25629;51.444;-2.606;2022-07-23T02:13:53;15.90;99.90
39951;DHT22;25629;51.444;-2.606;2022-07-23T02:16:19;15.90;99.90
39951;DHT22;25629;51.444;-2.606;2022-07-23T02:18:44;15.80;99.90
39951;DHT22;25629;51.444;-2.606;2022-07-23T02:21:12;15.80;99.90
39951;DHT22;25629;51.444;-2.606;2022-07-23T02:23:37;15.80;99.90
39951;DHT22;25629;51.444;-2.606;2022-07-23T02:26:03;15.80;99.90
39951;DHT22;25629;51.444;-2.606;2022-07-23T02:28:28;15.80;99.90
39951;DHT22;25629;51.444;-2.606;2022-07-23T02:30:54;15.80;99.90
39951;DHT22;25629;51.444;-2.606;2022-07-23T02:33:20;15.70;99.90
39951;DHT22;25629;51.444;-2.606;2022-07-23T02:35:45;15.70;99.90
39951;DHT22;25629;51.444;-2.606;2022-07-23T02:38:11;15.60;99.90
39951;DHT22;25629;51.444;-2.606;2022-07-23T02:40:36;15.50;99.90
39951;DHT22;25629;51.444;-2.606;2022-07-23T02:43:02;15.50;99.90
39951;DHT22;25629;51.444;-2.606;2022-07-23T02:45:27;15.50;99.90
39951;DHT22;25629;51.444;-2.606;2022-07-23T02:47:53;15.40;99.90
39951;DHT22;25629;51.444;-2.606;2022-07-23T02:50:18;15.50;99.90
39951;DHT22;25629;51.444;-2.606;2022-07-23T02:52:44;15.40;99.90
39951;DHT22;25629;51.444;-2.606;2022-07-23T02:55:10;15.40;99.90
39951;DHT22;25629;51.444;-2.606;2022-07-23T02:57:36;15.40;99.90
39951;DHT22;25629;51.444;-2.606;2022-07-23T03:00:02;15.40;99.90
39951;DHT22;25629;51.444;-2.606;2022-07-23T03:02:28;15.40;99.90
39951;DHT22;25629;51.444;-2.606;2022-07-23T03:04:54;15.40;99.90
39951;DHT22;25629;51.444;-2.606;2022-07-23T03:07:19;15.40;99.90
39951;DHT22;25629;51.444;-2.606;2022-07-23T03:09:45;15.30;99.90
39951;DHT22;25629;51.444;-2.606;2022-07-23T03:12:10;15.40;99.90
39951;DHT22;25629;51.444;-2.606;2022-07-23T03:14:36;15.40;99.90
39951;DHT22;25629;51.444;-2.606;2022-07-23T03:17:01;15.30;99.90
39951;DHT22;25629;51.444;-2.606;2022-07-23T03:19:27;15.30;99.90
39951;DHT22;25629;51.444;-2.606;2022-07-23T03:21:52;15.30;99.90
39951;DHT22;25629;51.444;-2.606;2022-07-23T03:24:18;15.30;99.90
39951;DHT22;25629;51.444;-2.606;2022-07-23T03:26:43;15.30;99.90
39951;DHT22;25629;51.444;-2.606;2022-07-23T03:29:09;15.30;99.90
39951;DHT22;25629;51.444;-2.606;2022-07-23T03:31:35;15.30;99.90
39951;DHT22;25629;51.444;-2.606;2022-07-23T03:34:00;15.20;99.90
39951;DHT22;25629;51.444;-2.606;2022-07-23T03:36:26;15.20;99.90
39951;DHT22;25629;51.444;-2.606;2022-07-23T03:38:52;15.20;99.90
39951;DHT22;25629;51.444;-2.606;2022-07-23T03:41:18;15.20;99.90
39951;DHT22;25629;51.444;-2.606;2022-07-23T03:43:43;15.20;99.90
39951;DHT22;25629;51.444;-2.606;2022-07-23T03:46:09;15.20;99.90
39951;DHT22;25629;51.444;-2.606;2022-07-23T03:48:35;15.20;99.90
39951;DHT22;25629;51.444;-2.606;2022-07-23T03:51:00;15.10;99.90
39951;DHT22;25629;51.444;-2.606;2022-07-23T03:53:26;15.10;99.90
39951;DHT22;25629;51.444;-2.606;2022-07-23T03:55:51;15.10;99.90
39951;DHT22;25629;51.444;-2.606;2022-07-23T03:58:17;15.10;99.90
39951;DHT22;25629;51.444;-2.606;2022-07-23T04:00:42;15.10;99.90
39951;DHT22;25629;51.444;-2.606;2022-07-23T04:03:08;15.20;99.90
39951;DHT22;25629;51.444;-2.606;2022-07-23T04:05:33;15.10;99.90
39951;DHT22;25629;51.444;-2.606;2022-07-23T04:07:59;15.10;99.90
39951;DHT22;25629;51.444;-2.606;2022-07-23T04:10:24;15.20;99.90
39951;DHT22;25629;51.444;-2.606;2022-07-23T04:12:50;15.20;99.90
39951;DHT22;25629;51.444;-2.606;2022-07-23T04:15:15;15.20;99.90
39951;DHT22;25629;51.444;-2.606;2022-07-23T04:17:41;15.10;99.90
39951;DHT22;25629;51.444;-2.606;2022-07-23T04:20:07;15.10;99.90
39951;DHT22;25629;51.444;-2.606;2022-07-23T04:22:32;15.10;99.90
39951;DHT22;25629;51.444;-2.606;2022-07-23T04:24:58;15.10;99.90
39951;DHT22;25629;51.444;-2.606;2022-07-23T04:27:24;15.10;99.90
39951;DHT22;25629;51.444;-2.606;2022-07-23T04:29:49;15.10;99.90
39951;DHT22;25629;51.444;-2.606;2022-07-23T04:32:15;15.10;99.90
39951;DHT22;25629;51.444;-2.606;2022-07-23T04:34:40;15.10;99.90
39951;DHT22;25629;51.444;-2.606;2022-07-23T04:37:06;15.10;99.90
39951;DHT22;25629;51.444;-2.606;2022-07-23T04:39:31;15.20;99.90
39951;DHT22;25629;51.444;-2.606;2022-07-23T04:41:57;15.20;99.90
39951;DHT22;25629;51.444;-2.606;2022-07-23T04:44:22;15.20;99.90
39951;DHT22;25629;51.444;-2.606;2022-07-23T04:46:48;15.20;99.90
39951;DHT22;25629;51.444;-2.606;2022-07-23T04:49:13;15.20;99.90
39951;DHT22;25629;51.444;-2.606;2022-07-23T04:51:39;15.30;99.90
39951;DHT22;25629;51.444;-2.606;2022-07-23T04:54:04;15.40;99.90
39951;DHT22;25629;51.444;-2.606;2022-07-23T04:56:30;15.50;99.90
39951;DHT22;25629;51.444;-2.606;2022-07-23T04:58:55;15.50;99.90
39951;DHT22;25629;51.444;-2.606;2022-07-23T05:01:21;15.60;99.90
39951;DHT22;25629;51.444;-2.606;2022-07-23T05:03:47;15.70;99.90
39951;DHT22;25629;51.444;-2.606;2022-07-23T05:06:14;15.70;99.90
39951;DHT22;25629;51.444;-2.606;2022-07-23T05:08:39;15.80;99.90
39951;DHT22;25629;51.444;-2.606;2022-07-23T05:11:05;15.90;99.90
39951;DHT22;25629;51.444;-2.606;2022-07-23T05:13:30;15.90;99.90
39951;DHT22;25629;51.444;-2.606;2022-07-23T05:15:56;16.00;99.90
39951;DHT22;25629;51.444;-2.606;2022-07-23T05:18:21;16.10;99.90
39951;DHT22;25629;51.444;-2.606;2022-07-23T05:20:47;16.20;99.90
39951;DHT22;25629;51.444;-2.606;2022-07-23T05:23:12;16.30;99.90
39951;DHT22;25629;51.444;-2.606;2022-07-23T05:25:39;16.30;99.90
39951;DHT22;25629;51.444;-2.606;2022-07-23T05:28:04;16.40;99.90
39951;DHT22;25629;51.444;-2.606;2022-07-23T05:30:30;16.40;99.90
39951;DHT22;25629;51.444;-2.606;2022-07-23T05:32:55;16.50;99.90
39951;DHT22;25629;51.444;-2.606;2022-07-23T05:35:21;16.50;99.90
39951;DHT22;25629;51.444;-2.606;2022-07-23T05:37:46;16.50;99.90
39951;DHT22;25629;51.444;-2.606;2022-07-23T05:40:12;16.50;99.90
39951;DHT22;25629;51.444;-2.606;2022-07-23T05:42:38;16.60;99.90
39951;DHT22;25629;51.444;-2.606;2022-07-23T05:45:04;16.60;99.90
39951;DHT22;25629;51.444;-2.606;2022-07-23T05:47:46;16.70;99.90
39951;DHT22;25629;51.444;-2.606;2022-07-23T05:50:13;16.70;99.90
39951;DHT22;25629;51.444;-2.606;2022-07-23T05:52:38;16.80;99.90
39951;DHT22;25629;51.444;-2.606;2022-07-23T05:55:04;16.90;99.90
39951;DHT22;25629;51.444;-2.606;2022-07-23T05:57:30;17.00;99.90
39951;DHT22;25629;51.444;-2.606;2022-07-23T05:59:55;17.20;99.90
39951;DHT22;25629;51.444;-2.606;2022-07-23T06:02:21;17.20;99.90
39951;DHT22;25629;51.444;-2.606;2022-07-23T06:04:47;17.20;99.90
39951;DHT22;25629;51.444;-2.606;2022-07-23T06:07:12;17.30;99.90
39951;DHT22;25629;51.444;-2.606;2022-07-23T06:09:38;17.40;99.90
39951;DHT22;25629;51.444;-2.606;2022-07-23T06:12:03;17.40;99.90
39951;DHT22;25629;51.444;-2.606;2022-07-23T06:14:29;17.40;99.90
39951;DHT22;25629;51.444;-2.606;2022-07-23T06:16:54;17.40;99.90
39951;DHT22;25629;51.444;-2.606;2022-07-23T06:19:20;17.40;99.90
39951;DHT22;25629;51.444;-2.606;2022-07-23T06:21:45;17.50;99.90
39951;DHT22;25629;51.444;-2.606;2022-07-23T06:24:11;17.50;99.90
39951;DHT22;25629;51.444;-2.606;2022-07-23T06:26:36;17.50;99.90
39951;DHT22;25629;51.444;-2.606;2022-07-23T06:29:02;17.50;99.90
39951;DHT22;25629;51.444;-2.606;2022-07-23T06:31:28;17.60;99.90
39951;DHT22;25629;51.444;-2.606;2022-07-23T06:33:54;17.50;99.90
39951;DHT22;25629;51.444;-2.606;2022-07-23T06:36:19;17.50;99.90
39951;DHT22;25629;51.444;-2.606;2022-07-23T06:38:45;17.50;99.90
39951;DHT22;25629;51.444;-2.606;2022-07-23T06:41:10;17.50;99.90
39951;DHT22;25629;51.444;-2.606;2022-07-23T06:43:36;17.60;99.90
39951;DHT22;25629;51.444;-2.606;2022-07-23T06:46:01;17.60;99.90
39951;DHT22;25629;51.444;-2.606;2022-07-23T06:48:27;17.60;99.90
39951;DHT22;25629;51.444;-2.606;2022-07-23T06:50:54;17.70;99.90
39951;DHT22;25629;51.444;-2.606;2022-07-23T06:53:20;17.80;99.90
39951;DHT22;25629;51.444;-2.606;2022-07-23T06:55:46;18.00;99.90
39951;DHT22;25629;51.444;-2.606;2022-07-23T06:58:11;18.20;99.90
39951;DHT22;25629;51.444;-2.606;2022-07-23T07:00:39;18.40;99.90
39951;DHT22;25629;51.444;-2.606;2022-07-23T07:03:05;18.60;99.90
39951;DHT22;25629;51.444;-2.606;2022-07-23T07:05:30;18.90;99.90
39951;DHT22;25629;51.444;-2.606;2022-07-23T07:07:56;19.00;99.90
39951;DHT22;25629;51.444;-2.606;2022-07-23T07:10:22;18.90;99.90
39951;DHT22;25629;51.444;-2.606;2022-07-23T07:12:47;19.00;99.90
39951;DHT22;25629;51.444;-2.606;2022-07-23T07:15:13;19.00;99.90
39951;DHT22;25629;51.444;-2.606;2022-07-23T07:17:38;19.10;99.90
39951;DHT22;25629;51.444;-2.606;2022-07-23T07:20:05;19.20;99.90
39951;DHT22;25629;51.444;-2.606;2022-07-23T07:22:30;19.40;99.90
39951;DHT22;25629;51.444;-2.606;2022-07-23T07:24:56;19.50;99.90
39951;DHT22;25629;51.444;-2.606;2022-07-23T07:27:21;19.50;99.90
39951;DHT22;25629;51.444;-2.606;2022-07-23T07:29:47;19.50;99.90
39951;DHT22;25629;51.444;-2.606;2022-07-23T07:32:12;19.60;99.90
39951;DHT22;25629;51.444;-2.606;2022-07-23T07:34:38;19.60;99.90
39951;DHT22;25629;51.444;-2.606;2022-07-23T07:37:03;19.60;99.90
39951;DHT22;25629;51.444;-2.606;2022-07-23T07:39:29;19.80;99.90
39951;DHT22;25629;51.444;-2.606;2022-07-23T07:41:55;19.80;99.90
39951;DHT22;25629;51.444;-2.606;2022-07-23T07:44:20;19.90;99.90
39951;DHT22;25629;51.444;-2.606;2022-07-23T07:46:46;20.10;99.90
39951;DHT22;25629;51.444;-2.606;2022-07-23T07:49:11;20.00;99.90
39951;DHT22;25629;51.444;-2.606;2022-07-23T07:51:37;20.10;99.90
39951;DHT22;25629;51.444;-2.606;2022-07-23T07:54:02;20.20;99.90
39951;DHT22;25629;51.444;-2.606;2022-07-23T07:56:29;20.40;99.90
39951;DHT22;25629;51.444;-2.606;2022-07-23T07:58:54;20.60;99.90
39951;DHT22;25629;51.444;-2.606;2022-07-23T08:01:20;20.60;99.90
39951;DHT22;25629;51.444;-2.606;2022-07-23T08:03:46;20.60;99.90
39951;DHT22;25629;51.444;-2.606;2022-07-23T08:06:11;20.80;99.90
39951;DHT22;25629;51.444;-2.606;2022-07-23T08:08:37;21.10;99.90
39951;DHT22;25629;51.444;-2.606;2022-07-23T08:11:02;21.30;99.90
39951;DHT22;25629;51.444;-2.606;2022-07-23T08:13:28;21.40;99.90
39951;DHT22;25629;51.444;-2.606;2022-07-23T08:15:54;21.50;99.90
39951;DHT22;25629;51.444;-2.606;2022-07-23T08:18:19;21.50;99.90
39951;DHT22;25629;51.444;-2.606;2022-07-23T08:20:45;21.60;99.90
39951;DHT22;25629;51.444;-2.606;2022-07-23T08:23:10;21.50;99.90
39951;DHT22;25629;51.444;-2.606;2022-07-23T08:25:41;21.50;99.90
39951;DHT22;25629;51.444;-2.606;2022-07-23T08:28:07;21.80;99.90
39951;DHT22;25629;51.444;-2.606;2022-07-23T08:30:33;21.90;99.90
39951;DHT22;25629;51.444;-2.606;2022-07-23T08:35:36;21.90;99.90
39951;DHT22;25629;51.444;-2.606;2022-07-23T08:38:05;21.80;99.90
39951;DHT22;25629;51.444;-2.606;2022-07-23T08:40:32;21.80;99.90
39951;DHT22;25629;51.444;-2.606;2022-07-23T08:42:58;21.70;99.90
39951;DHT22;25629;51.444;-2.606;2022-07-23T08:45:25;21.70;99.90
39951;DHT22;25629;51.444;-2.606;2022-07-23T08:47:51;21.60;99.90
39951;DHT22;25629;51.444;-2.606;2022-07-23T08:50:17;21.50;99.90
39951;DHT22;25629;51.444;-2.606;2022-07-23T08:52:43;21.40;99.90
39951;DHT22;25629;51.444;-2.606;2022-07-23T08:55:08;21.30;99.90
39951;DHT22;25629;51.444;-2.606;2022-07-23T08:57:34;21.10;99.90
39951;DHT22;25629;51.444;-2.606;2022-07-23T09:00:00;21.10;99.90
39951;DHT22;25629;51.444;-2.606;2022-07-23T09:02:25;21.10;99.90
39951;DHT22;25629;51.444;-2.606;2022-07-23T09:04:51;21.30;99.90
39951;DHT22;25629;51.444;-2.606;2022-07-23T09:07:17;21.30;99.90
39951;DHT22;25629;51.444;-2.606;2022-07-23T09:09:42;21.20;99.90
39951;DHT22;25629;51.444;-2.606;2022-07-23T09:12:09;21.30;99.90
39951;DHT22;25629;51.444;-2.606;2022-07-23T09:14:39;21.20;99.90
39951;DHT22;25629;51.444;-2.606;2022-07-23T09:17:08;21.10;99.90
39951;DHT22;25629;51.444;-2.606;2022-07-23T09:19:34;20.90;99.90
39951;DHT22;25629;51.444;-2.606;2022-07-23T09:22:15;20.80;99.90
39951;DHT22;25629;51.444;-2.606;2022-07-23T09:25:02;20.70;99.90
39951;DHT22;25629;51.444;-2.606;2022-07-23T09:27:44;20.60;99.90
39951;DHT22;25629;51.444;-2.606;2022-07-23T09:30:10;20.70;99.90
39951;DHT22;25629;51.444;-2.606;2022-07-23T09:32:36;20.80;99.90
39951;DHT22;25629;51.444;-2.606;2022-07-23T09:35:01;21.10;99.90
39951;DHT22;25629;51.444;-2.606;2022-07-23T09:37:27;21.60;99.90
39951;DHT22;25629;51.444;-2.606;2022-07-23T09:39:52;21.90;99.90
39951;DHT22;25629;51.444;-2.606;2022-07-23T09:42:28;22.20;99.90
39951;DHT22;25629;51.444;-2.606;2022-07-23T09:44:57;22.30;99.90
39951;DHT22;25629;51.444;-2.606;2022-07-23T09:47:23;22.40;99.90
39951;DHT22;25629;51.444;-2.606;2022-07-23T09:52:28;22.30;99.90
39951;DHT22;25629;51.444;-2.606;2022-07-23T09:55:01;22.40;99.90
39951;DHT22;25629;51.444;-2.606;2022-07-23T09:57:27;22.40;99.90
39951;DHT22;25629;51.444;-2.606;2022-07-23T09:59:53;22.50;99.90
39951;DHT22;25629;51.444;-2.606;2022-07-23T10:02:21;22.60;99.90
39951;DHT22;25629;51.444;-2.606;2022-07-23T10:04:47;22.80;99.90
39951;DHT22;25629;51.444;-2.606;2022-07-23T10:07:13;22.80;99.90
39951;DHT22;25629;51.444;-2.606;2022-07-23T10:09:39;22.90;99.90
39951;DHT22;25629;51.444;-2.606;2022-07-23T10:12:09;22.80;99.90
39951;DHT22;25629;51.444;-2.606;2022-07-23T10:14:54;22.50;99.90
39951;DHT22;25629;51.444;-2.606;2022-07-23T10:17:21;22.60;99.90
39951;DHT22;25629;51.444;-2.606;2022-07-23T10:19:47;22.80;99.90
39951;DHT22;25629;51.444;-2.606;2022-07-23T10:22:19;23.20;99.90
39951;DHT22;25629;51.444;-2.606;2022-07-23T10:24:51;23.30;99.90
39951;DHT22;25629;51.444;-2.606;2022-07-23T10:38:00;22.00;99.90
39951;DHT22;25629;51.444;-2.606;2022-07-23T10:40:17;21.90;99.90
39951;DHT22;25629;51.444;-2.606;2022-07-23T10:42:44;21.90;99.90
39951;DHT22;25629;51.444;-2.606;2022-07-23T10:47:54;21.70;99.90
39951;DHT22;25629;51.444;-2.606;2022-07-23T10:50:27;21.40;99.90
39951;DHT22;25629;51.444;-2.606;2022-07-23T10:58:04;21.20;99.90
39951;DHT22;25629;51.444;-2.606;2022-07-23T11:00:30;21.10;99.90
39951;DHT22;25629;51.444;-2.606;2022-07-23T11:02:57;21.10;99.90
39951;DHT22;25629;51.444;-2.606;2022-07-23T11:05:25;21.20;99.90
39951;DHT22;25629;51.444;-2.606;2022-07-23T11:10:42;21.50;99.90
39951;DHT22;25629;51.444;-2.606;2022-07-23T11:24:03;22.00;99.90
39951;DHT22;25629;51.444;-2.606;2022-07-23T11:32:01;22.70;99.90
39951;DHT22;25629;51.444;-2.606;2022-07-23T11:34:34;22.70;99.90
39951;DHT22;25629;51.444;-2.606;2022-07-23T11:37:01;22.50;99.90
39951;DHT22;25629;51.444;-2.606;2022-07-23T11:39:28;22.40;99.90
39951;DHT22;25629;51.444;-2.606;2022-07-23T11:41:54;22.30;99.90
39951;DHT22;25629;51.444;-2.606;2022-07-23T11:44:28;22.30;99.90
39951;DHT22;25629;51.444;-2.606;2022-07-23T11:47:05;22.20;99.90
39951;DHT22;25629;51.444;-2.606;2022-07-23T11:49:31;22.40;99.90
39951;DHT22;25629;51.444;-2.606;2022-07-23T11:52:07;22.50;99.90
39951;DHT22;25629;51.444;-2.606;2022-07-23T11:54:33;22.60;99.90
39951;DHT22;25629;51.444;-2.606;2022-07-23T11:57:00;22.60;99.90
39951;DHT22;25629;51.444;-2.606;2022-07-23T11:59:26;22.50;99.90
39951;DHT22;25629;51.444;-2.606;2022-07-23T12:02:10;22.60;99.90
39951;DHT22;25629;51.444;-2.606;2022-07-23T12:04:40;22.50;99.90
39951;DHT22;25629;51.444;-2.606;2022-07-23T12:09:49;22.60;99.90
39951;DHT22;25629;51.444;-2.606;2022-07-23T12:12:15;22.30;99.90
39951;DHT22;25629;51.444;-2.606;2022-07-23T12:14:54;22.30;99.90
39951;DHT22;25629;51.444;-2.606;2022-07-23T12:17:20;22.20;99.90
39951;DHT22;25629;51.444;-2.606;2022-07-23T12:19:46;22.30;99.90
39951;DHT22;25629;51.444;-2.606;2022-07-23T12:22:12;22.30;99.90
39951;DHT22;25629;51.444;-2.606;2022-07-23T12:24:58;22.20;99.90
39951;DHT22;25629;51.444;-2.606;2022-07-23T12:27:24;22.10;99.90
39951;DHT22;25629;51.444;-2.606;2022-07-23T12:29:50;22.00;99.90
39951;DHT22;25629;51.444;-2.606;2022-07-23T12:32:20;21.90;99.90
39951;DHT22;25629;51.444;-2.606;2022-07-23T12:34:48;21.90;99.90
39951;DHT22;25629;51.444;-2.606;2022-07-23T12:37:30;21.90;99.90
39951;DHT22;25629;51.444;-2.606;2022-07-23T12:39:55;21.90;99.90
39951;DHT22;25629;51.444;-2.606;2022-07-23T12:42:21;21.90;99.90
39951;DHT22;25629;51.444;-2.606;2022-07-23T12:45:05;22.00;99.90
39951;DHT22;25629;51.444;-2.606;2022-07-23T12:47:49;22.10;99.90
39951;DHT22;25629;51.444;-2.606;2022-07-23T12:53:03;21.90;99.90
39951;DHT22;25629;51.444;-2.606;2022-07-23T12:55:29;21.80;99.90
39951;DHT22;25629;51.444;-2.606;2022-07-23T12:58:02;21.70;99.90
39951;DHT22;25629;51.444;-2.606;2022-07-23T13:00:28;21.60;99.90
39951;DHT22;25629;51.444;-2.606;2022-07-23T13:02:53;21.70;99.90
39951;DHT22;25629;51.444;-2.606;2022-07-23T13:05:19;21.80;99.90
39951;DHT22;25629;51.444;-2.606;2022-07-23T13:07:44;22.00;99.90
39951;DHT22;25629;51.444;-2.606;2022-07-23T13:10:10;22.20;99.90
39951;DHT22;25629;51.444;-2.606;2022-07-23T13:12:37;22.20;99.90
39951;DHT22;25629;51.444;-2.606;2022-07-23T13:15:03;22.40;99.90
39951;DHT22;25629;51.444;-2.606;2022-07-23T13:17:29;22.70;99.90
39951;DHT22;25629;51.444;-2.606;2022-07-23T13:19:54;22.80;99.90
39951;DHT22;25629;51.444;-2.606;2022-07-23T13:22:20;22.90;99.90
39951;DHT22;25629;51.444;-2.606;2022-07-23T13:24:45;23.10;99.90
39951;DHT22;25629;51.444;-2.606;2022-07-23T13:27:11;23.30;99.90
39951;DHT22;25629;51.444;-2.606;2022-07-23T13:29:37;23.40;99.90
39951;DHT22;25629;51.444;-2.606;2022-07-23T13:32:02;23.60;99.90
39951;DHT22;25629;51.444;-2.606;2022-07-23T13:34:28;23.60;99.90
39951;DHT22;25629;51.444;-2.606;2022-07-23T13:36:54;23.80;99.90
39951;DHT22;25629;51.444;-2.606;2022-07-23T13:39:19;23.60;99.90
39951;DHT22;25629;51.444;-2.606;2022-07-23T13:41:45;23.70;99.90
39951;DHT22;25629;51.444;-2.606;2022-07-23T13:44:10;23.90;99.90
39951;DHT22;25629;51.444;-2.606;2022-07-23T13:46:36;23.80;99.90
39951;DHT22;25629;51.444;-2.606;2022-07-23T13:49:02;23.70;99.90
39951;DHT22;25629;51.444;-2.606;2022-07-23T13:51:28;23.40;99.90
39951;DHT22;25629;51.444;-2.606;2022-07-23T13:53:53;23.30;99.90
39951;DHT22;25629;51.444;-2.606;2022-07-23T13:56:19;23.30;99.90
39951;DHT22;25629;51.444;-2.606;2022-07-23T13:58:45;23.40;99.90
39951;DHT22;25629;51.444;-2.606;2022-07-23T14:01:11;23.50;99.90
39951;DHT22;25629;51.444;-2.606;2022-07-23T14:03:36;23.30;99.90
39951;DHT22;25629;51.444;-2.606;2022-07-23T14:06:02;23.20;99.90
39951;DHT22;25629;51.444;-2.606;2022-07-23T14:08:27;22.80;99.90
39951;DHT22;25629;51.444;-2.606;2022-07-23T14:10:53;22.40;99.90
39951;DHT22;25629;51.444;-2.606;2022-07-23T14:13:18;22.30;99.90
39951;DHT22;25629;51.444;-2.606;2022-07-23T14:15:44;22.10;99.90
39951;DHT22;25629;51.444;-2.606;2022-07-23T14:18:10;22.00;99.90
39951;DHT22;25629;51.444;-2.606;2022-07-23T14:20:35;22.20;99.90
39951;DHT22;25629;51.444;-2.606;2022-07-23T14:23:01;22.40;99.90
39951;DHT22;25629;51.444;-2.606;2022-07-23T14:25:27;22.80;99.90
39951;DHT22;25629;51.444;-2.606;2022-07-23T14:27:52;23.60;99.90
39951;DHT22;25629;51.444;-2.606;2022-07-23T14:30:18;24.40;99.90
39951;DHT22;25629;51.444;-2.606;2022-07-23T14:32:43;25.00;99.90
39951;DHT22;25629;51.444;-2.606;2022-07-23T14:35:09;25.10;99.90
39951;DHT22;25629;51.444;-2.606;2022-07-23T14:37:35;24.60;99.90
39951;DHT22;25629;51.444;-2.606;2022-07-23T14:40:00;24.30;99.90
39951;DHT22;25629;51.444;-2.606;2022-07-23T14:42:26;23.90;99.90
39951;DHT22;25629;51.444;-2.606;2022-07-23T14:44:51;23.50;99.90
39951;DHT22;25629;51.444;-2.606;2022-07-23T14:47:17;23.20;99.90
39951;DHT22;25629;51.444;-2.606;2022-07-23T14:49:43;23.00;99.90
39951;DHT22;25629;51.444;-2.606;2022-07-23T14:52:08;22.80;99.90
39951;DHT22;25629;51.444;-2.606;2022-07-23T14:54:34;22.50;99.90
39951;DHT22;25629;51.444;-2.606;2022-07-23T14:57:00;22.40;99.90
39951;DHT22;25629;51.444;-2.606;2022-07-23T14:59:27;22.10;99.90
39951;DHT22;25629;51.444;-2.606;2022-07-23T15:01:53;22.10;99.90
39951;DHT22;25629;51.444;-2.606;2022-07-23T15:04:20;22.00;99.90
39951;DHT22;25629;51.444;-2.606;2022-07-23T15:06:45;22.20;99.90
39951;DHT22;25629;51.444;-2.606;2022-07-23T15:09:11;22.60;99.90
39951;DHT22;25629;51.444;-2.606;2022-07-23T15:11:36;23.00;99.90
39951;DHT22;25629;51.444;-2.606;2022-07-23T15:14:03;23.30;99.90
39951;DHT22;25629;51.444;-2.606;2022-07-23T15:16:29;23.40;99.90
39951;DHT22;25629;51.444;-2.606;2022-07-23T15:18:54;23.20;99.90
39951;DHT22;25629;51.444;-2.606;2022-07-23T15:21:20;22.90;99.90
39951;DHT22;25629;51.444;-2.606;2022-07-23T15:23:46;22.80;99.90
39951;DHT22;25629;51.444;-2.606;2022-07-23T15:26:11;22.90;99.90
39951;DHT22;25629;51.444;-2.606;2022-07-23T15:28:37;23.00;99.90
39951;DHT22;25629;51.444;-2.606;2022-07-23T15:31:03;22.90;99.90
39951;DHT22;25629;51.444;-2.606;2022-07-23T15:33:29;22.80;99.90
39951;DHT22;25629;51.444;-2.606;2022-07-23T15:35:54;22.70;99.90
39951;DHT22;25629;51.444;-2.606;2022-07-23T15:38:21;22.60;99.90
39951;DHT22;25629;51.444;-2.606;2022-07-23T15:40:47;22.60;99.90
39951;DHT22;25629;51.444;-2.606;2022-07-23T15:43:12;22.40;99.90
39951;DHT22;25629;51.444;-2.606;2022-07-23T15:45:39;22.40;99.90
39951;DHT22;25629;51.444;-2.606;2022-07-23T15:48:04;22.40;99.90
39951;DHT22;25629;51.444;-2.606;2022-07-23T15:50:30;22.40;99.90
39951;DHT22;25629;51.444;-2.606;2022-07-23T15:52:55;22.50;99.90
39951;DHT22;25629;51.444;-2.606;2022-07-23T15:55:21;22.40;99.90
39951;DHT22;25629;51.444;-2.606;2022-07-23T15:57:47;22.30;99.90